sensor_id;sensor_type;location;lat;lon;timestamp;temperature;humidity
4107;DHT22;21906;50.812;7.132;2022-12-17T00:00:48;0.60;78.20
4107;DHT22;21906;50.812;7.132;2022-12-17T00:03:33;0.60;78.10
4107;DHT22;21906;50.812;7.132;2022-12-17T00:06:18;0.70;77.90
4107;DHT22;21906;50.812;7.132;2022-12-17T00:09:02;0.60;78.00
4107;DHT22;21906;50.812;7.132;2022-12-17T00:11:46;0.70;77.80
4107;DHT22;21906;50.812;7.132;2022-12-17T00:14:30;0.70;77.60
4107;DHT22;21906;50.812;7.132;2022-12-17T00:17:14;0.70;77.50
4107;DHT22;21906;50.812;7.132;2022-12-17T00:19:58;0.70;77.50
4107;DHT22;21906;50.812;7.132;2022-12-17T00:22:42;0.50;77.90
4107;DHT22;21906;50.812;7.132;2022-12-17T00:25:26;0.50;78.20
4107;DHT22;21906;50.812;7.132;2022-12-17T00:28:12;0.40;78.40
4107;DHT22;21906;50.812;7.132;2022-12-17T00:30:56;0.40;78.60
4107;DHT22;21906;50.812;7.132;2022-12-17T00:33:41;0.30;78.60
4107;DHT22;21906;50.812;7.132;2022-12-17T00:36:25;0.40;78.50
4107;DHT22;21906;50.812;7.132;2022-12-17T00:39:10;0.40;78.50
4107;DHT22;21906;50.812;7.132;2022-12-17T00:41:57;0.30;78.40
4107;DHT22;21906;50.812;7.132;2022-12-17T00:44:41;0.40;78.40
4107;DHT22;21906;50.812;7.132;2022-12-17T00:47:25;0.60;78.00
4107;DHT22;21906;50.812;7.132;2022-12-17T00:50:09;0.70;77.60
4107;DHT22;21906;50.812;7.132;2022-12-17T00:53:04;0.70;77.40
4107;DHT22;21906;50.812;7.132;2022-12-17T00:55:48;0.60;77.40
4107;DHT22;21906;50.812;7.132;2022-12-17T00:58:32;0.50;77.60
4107;DHT22;21906;50.812;7.132;2022-12-17T01:01:16;0.30;78.20
4107;DHT22;21906;50.812;7.132;2022-12-17T01:04:01;0.30;78.20
4107;DHT22;21906;50.812;7.132;2022-12-17T01:06:45;0.40;78.10
4107;DHT22;21906;50.812;7.132;2022-12-17T01:09:29;0.40;77.80
4107;DHT22;21906;50.812;7.132;2022-12-17T01:12:13;0.40;77.90
4107;DHT22;21906;50.812;7.132;2022-12-17T01:14:57;0.40;77.80
4107;DHT22;21906;50.812;7.132;2022-12-17T01:17:41;0.10;78.00
4107;DHT22;21906;50.812;7.132;2022-12-17T01:20:25;0.00;78.60
4107;DHT22;21906;50.812;7.132;2022-12-17T01:23:09;0.00;79.00
4107;DHT22;21906;50.812;7.132;2022-12-17T01:25:55;0.00;79.10
4107;DHT22;21906;50.812;7.132;2022-12-17T01:28:40;0.00;79.00
4107;DHT22;21906;50.812;7.132;2022-12-17T01:31:41;0.00;79.20
4107;DHT22;21906;50.812;7.132;2022-12-17T01:34:25;0.00;79.20
4107;DHT22;21906;50.812;7.132;2022-12-17T01:37:12;0.10;78.80
4107;DHT22;21906;50.812;7.132;2022-12-17T01:39:56;0.10;78.80
4107;DHT22;21906;50.812;7.132;2022-12-17T01:42:43;0.20;78.40
4107;DHT22;21906;50.812;7.132;2022-12-17T01:45:35;0.30;78.10
4107;DHT22;21906;50.812;7.132;2022-12-17T01:48:26;0.30;77.90
4107;DHT22;21906;50.812;7.132;2022-12-17T01:51:13;0.30;77.90
4107;DHT22;21906;50.812;7.132;2022-12-17T01:53:59;0.30;77.70
4107;DHT22;21906;50.812;7.132;2022-12-17T01:56:44;0.20;77.80
4107;DHT22;21906;50.812;7.132;2022-12-17T02:02:41;0.20;78.10
4107;DHT22;21906;50.812;7.132;2022-12-17T02:05:33;0.30;77.70
4107;DHT22;21906;50.812;7.132;2022-12-17T02:14:22;0.00;77.80
4107;DHT22;21906;50.812;7.132;2022-12-17T02:17:13;0.10;78.00
4107;DHT22;21906;50.812;7.132;2022-12-17T02:23:08;0.10;78.00
4107;DHT22;21906;50.812;7.132;2022-12-17T02:26:27;0.20;77.60
4107;DHT22;21906;50.812;7.132;2022-12-17T02:29:13;0.00;78.40
4107;DHT22;21906;50.812;7.132;2022-12-17T02:31:57;0.00;78.10
4107;DHT22;21906;50.812;7.132;2022-12-17T02:34:52;-3276.60;78.70
4107;DHT22;21906;50.812;7.132;2022-12-17T02:37:36;-3276.60;78.80
4107;DHT22;21906;50.812;7.132;2022-12-17T02:40:21;-3276.70;78.70
4107;DHT22;21906;50.812;7.132;2022-12-17T02:43:07;-3276.70;78.50
4107;DHT22;21906;50.812;7.132;2022-12-17T02:45:53;-3276.50;78.50
4107;DHT22;21906;50.812;7.132;2022-12-17T02:48:37;-3276.40;79.10
4107;DHT22;21906;50.812;7.132;2022-12-17T02:51:22;-3276.60;78.80
4107;DHT22;21906;50.812;7.132;2022-12-17T02:54:07;0.00;78.30
4107;DHT22;21906;50.812;7.132;2022-12-17T02:56:51;-3276.70;77.90
4107;DHT22;21906;50.812;7.132;2022-12-17T02:59:35;0.00;78.00
4107;DHT22;21906;50.812;7.132;2022-12-17T03:02:20;-3276.70;78.10
4107;DHT22;21906;50.812;7.132;2022-12-17T03:05:08;-3276.60;78.20
4107;DHT22;21906;50.812;7.132;2022-12-17T03:07:52;-3276.70;78.00
4107;DHT22;21906;50.812;7.132;2022-12-17T03:10:37;0.00;77.60
4107;DHT22;21906;50.812;7.132;2022-12-17T03:13:22;0.00;77.50
4107;DHT22;21906;50.812;7.132;2022-12-17T03:16:12;0.00;77.30
4107;DHT22;21906;50.812;7.132;2022-12-17T03:18:57;0.00;77.10
4107;DHT22;21906;50.812;7.132;2022-12-17T03:21:41;0.00;77.00
4107;DHT22;21906;50.812;7.132;2022-12-17T03:24:26;0.00;77.00
4107;DHT22;21906;50.812;7.132;2022-12-17T03:27:10;0.00;77.10
4107;DHT22;21906;50.812;7.132;2022-12-17T03:29:54;-3276.60;77.30
4107;DHT22;21906;50.812;7.132;2022-12-17T03:32:38;-3276.60;77.20
4107;DHT22;21906;50.812;7.132;2022-12-17T03:35:23;-3276.50;77.50
4107;DHT22;21906;50.812;7.132;2022-12-17T03:38:08;-3276.20;78.00
4107;DHT22;21906;50.812;7.132;2022-12-17T03:40:53;-3276.30;78.20
4107;DHT22;21906;50.812;7.132;2022-12-17T03:43:37;-3276.50;77.80
4107;DHT22;21906;50.812;7.132;2022-12-17T03:46:22;-3276.50;77.30
4107;DHT22;21906;50.812;7.132;2022-12-17T03:49:06;-3276.50;77.50
4107;DHT22;21906;50.812;7.132;2022-12-17T03:51:51;-3276.60;77.10
4107;DHT22;21906;50.812;7.132;2022-12-17T03:54:34;-3276.50;77.00
4107;DHT22;21906;50.812;7.132;2022-12-17T03:57:19;-3276.40;77.30
4107;DHT22;21906;50.812;7.132;2022-12-17T04:00:04;-3276.30;77.50
4107;DHT22;21906;50.812;7.132;2022-12-17T04:02:48;-3276.20;77.70
4107;DHT22;21906;50.812;7.132;2022-12-17T04:05:32;-3276.30;77.70
4107;DHT22;21906;50.812;7.132;2022-12-17T04:08:16;-3276.30;77.60
4107;DHT22;21906;50.812;7.132;2022-12-17T04:11:01;-3276.40;77.30
4107;DHT22;21906;50.812;7.132;2022-12-17T04:13:45;-3276.40;77.10
4107;DHT22;21906;50.812;7.132;2022-12-17T04:16:29;-3276.30;77.20
4107;DHT22;21906;50.812;7.132;2022-12-17T04:19:13;-3276.10;77.90
4107;DHT22;21906;50.812;7.132;2022-12-17T04:21:57;-3276.20;77.70
4107;DHT22;21906;50.812;7.132;2022-12-17T04:24:41;-3276.30;77.60
4107;DHT22;21906;50.812;7.132;2022-12-17T04:27:25;-3276.20;77.50
4107;DHT22;21906;50.812;7.132;2022-12-17T04:30:09;-3276.20;77.50
4107;DHT22;21906;50.812;7.132;2022-12-17T04:32:53;-3276.20;77.40
4107;DHT22;21906;50.812;7.132;2022-12-17T04:35:37;-3276.00;77.80
4107;DHT22;21906;50.812;7.132;2022-12-17T04:38:21;-3276.10;77.90
4107;DHT22;21906;50.812;7.132;2022-12-17T04:41:05;-3276.10;77.50
4107;DHT22;21906;50.812;7.132;2022-12-17T04:43:49;-3276.00;77.90
4107;DHT22;21906;50.812;7.132;2022-12-17T04:46:34;-3276.20;77.60
4107;DHT22;21906;50.812;7.132;2022-12-17T04:49:18;-3276.20;77.30
4107;DHT22;21906;50.812;7.132;2022-12-17T04:52:02;-3276.00;77.40
4107;DHT22;21906;50.812;7.132;2022-12-17T04:54:46;-3276.10;77.40
4107;DHT22;21906;50.812;7.132;2022-12-17T04:57:30;-3276.00;77.40
4107;DHT22;21906;50.812;7.132;2022-12-17T05:00:15;-3275.80;77.60
4107;DHT22;21906;50.812;7.132;2022-12-17T05:03:10;-3276.00;77.60
4107;DHT22;21906;50.812;7.132;2022-12-17T05:05:54;-3276.00;77.30
4107;DHT22;21906;50.812;7.132;2022-12-17T05:08:38;-3275.80;77.30
4107;DHT22;21906;50.812;7.132;2022-12-17T05:11:22;-3275.80;77.60
4107;DHT22;21906;50.812;7.132;2022-12-17T05:14:06;-3276.00;77.40
4107;DHT22;21906;50.812;7.132;2022-12-17T05:16:50;-3276.10;77.00
4107;DHT22;21906;50.812;7.132;2022-12-17T05:19:34;-3276.10;76.70
4107;DHT22;21906;50.812;7.132;2022-12-17T05:22:18;-3276.20;76.60
4107;DHT22;21906;50.812;7.132;2022-12-17T05:25:03;-3276.30;75.90
4107;DHT22;21906;50.812;7.132;2022-12-17T05:27:47;-3276.40;75.50
4107;DHT22;21906;50.812;7.132;2022-12-17T05:30:31;-3276.40;75.50
4107;DHT22;21906;50.812;7.132;2022-12-17T05:33:15;-3276.20;75.30
4107;DHT22;21906;50.812;7.132;2022-12-17T05:36:00;-3276.00;75.90
4107;DHT22;21906;50.812;7.132;2022-12-17T05:38:44;-3276.00;75.90
4107;DHT22;21906;50.812;7.132;2022-12-17T05:41:28;-3276.20;75.90
4107;DHT22;21906;50.812;7.132;2022-12-17T05:44:12;-3276.30;75.60
4107;DHT22;21906;50.812;7.132;2022-12-17T05:46:56;-3276.20;75.30
4107;DHT22;21906;50.812;7.132;2022-12-17T05:49:40;-3276.10;75.80
4107;DHT22;21906;50.812;7.132;2022-12-17T05:52:24;-3275.80;76.80
4107;DHT22;21906;50.812;7.132;2022-12-17T05:55:08;-3275.90;76.70
4107;DHT22;21906;50.812;7.132;2022-12-17T05:58:01;-3275.90;76.60
4107;DHT22;21906;50.812;7.132;2022-12-17T06:00:45;-3275.90;76.60
4107;DHT22;21906;50.812;7.132;2022-12-17T06:03:29;-3276.10;76.30
4107;DHT22;21906;50.812;7.132;2022-12-17T06:06:13;-3276.00;75.80
4107;DHT22;21906;50.812;7.132;2022-12-17T06:08:57;-3276.10;75.40
4107;DHT22;21906;50.812;7.132;2022-12-17T06:11:41;-3276.20;75.40
4107;DHT22;21906;50.812;7.132;2022-12-17T06:14:25;-3275.90;75.40
4107;DHT22;21906;50.812;7.132;2022-12-17T06:17:11;-3275.80;76.00
4107;DHT22;21906;50.812;7.132;2022-12-17T06:19:55;-3275.90;75.70
4107;DHT22;21906;50.812;7.132;2022-12-17T06:22:39;-3275.60;76.70
4107;DHT22;21906;50.812;7.132;2022-12-17T06:25:23;-3275.70;76.80
4107;DHT22;21906;50.812;7.132;2022-12-17T06:28:08;-3275.80;76.40
4107;DHT22;21906;50.812;7.132;2022-12-17T06:30:53;-3276.00;75.90
4107;DHT22;21906;50.812;7.132;2022-12-17T06:33:38;-3276.10;75.50
4107;DHT22;21906;50.812;7.132;2022-12-17T06:36:23;-3276.10;74.70
4107;DHT22;21906;50.812;7.132;2022-12-17T06:39:08;-3276.10;74.60
4107;DHT22;21906;50.812;7.132;2022-12-17T06:41:52;-3276.10;74.60
4107;DHT22;21906;50.812;7.132;2022-12-17T06:44:36;-3276.20;74.30
4107;DHT22;21906;50.812;7.132;2022-12-17T06:47:20;-3276.30;74.40
4107;DHT22;21906;50.812;7.132;2022-12-17T06:50:05;-3276.30;73.70
4107;DHT22;21906;50.812;7.132;2022-12-17T06:53:00;-3276.40;73.50
4107;DHT22;21906;50.812;7.132;2022-12-17T06:55:45;-3276.30;73.40
4107;DHT22;21906;50.812;7.132;2022-12-17T06:58:29;-3276.20;73.30
4107;DHT22;21906;50.812;7.132;2022-12-17T07:01:13;-3276.20;73.10
4107;DHT22;21906;50.812;7.132;2022-12-17T07:03:57;-3276.20;73.20
4107;DHT22;21906;50.812;7.132;2022-12-17T07:06:41;-3276.20;73.00
4107;DHT22;21906;50.812;7.132;2022-12-17T07:09:25;-3276.20;72.70
4107;DHT22;21906;50.812;7.132;2022-12-17T07:12:09;-3276.20;72.90
4107;DHT22;21906;50.812;7.132;2022-12-17T07:14:53;-3276.20;72.40
4107;DHT22;21906;50.812;7.132;2022-12-17T07:17:37;-3276.10;73.00
4107;DHT22;21906;50.812;7.132;2022-12-17T07:20:21;-3276.20;72.80
4107;DHT22;21906;50.812;7.132;2022-12-17T07:23:05;-3276.10;72.80
4107;DHT22;21906;50.812;7.132;2022-12-17T07:25:49;-3276.00;72.80
4107;DHT22;21906;50.812;7.132;2022-12-17T07:28:33;-3275.70;73.40
4107;DHT22;21906;50.812;7.132;2022-12-17T07:31:18;-3275.80;73.70
4107;DHT22;21906;50.812;7.132;2022-12-17T07:34:02;-3275.80;73.70
4107;DHT22;21906;50.812;7.132;2022-12-17T07:36:46;-3275.80;73.40
4107;DHT22;21906;50.812;7.132;2022-12-17T07:39:30;-3275.90;73.20
4107;DHT22;21906;50.812;7.132;2022-12-17T07:42:14;-3276.00;72.80
4107;DHT22;21906;50.812;7.132;2022-12-17T07:44:58;-3275.80;72.80
4107;DHT22;21906;50.812;7.132;2022-12-17T07:47:46;-3275.60;73.40
4107;DHT22;21906;50.812;7.132;2022-12-17T07:50:33;-3275.70;73.30
4107;DHT22;21906;50.812;7.132;2022-12-17T07:53:17;-3275.80;73.10
4107;DHT22;21906;50.812;7.132;2022-12-17T07:56:01;-3275.70;72.70
4107;DHT22;21906;50.812;7.132;2022-12-17T07:58:45;-3275.60;72.90
4107;DHT22;21906;50.812;7.132;2022-12-17T08:01:29;-3275.50;73.20
4107;DHT22;21906;50.812;7.132;2022-12-17T08:04:13;-3275.70;73.20
4107;DHT22;21906;50.812;7.132;2022-12-17T08:06:57;-3275.60;73.10
4107;DHT22;21906;50.812;7.132;2022-12-17T08:09:42;-3275.60;72.50
4107;DHT22;21906;50.812;7.132;2022-12-17T08:12:26;-3275.70;72.40
4107;DHT22;21906;50.812;7.132;2022-12-17T08:15:18;-3275.80;72.50
4107;DHT22;21906;50.812;7.132;2022-12-17T08:18:03;-3275.50;72.50
4107;DHT22;21906;50.812;7.132;2022-12-17T08:20:47;-3275.50;72.70
4107;DHT22;21906;50.812;7.132;2022-12-17T08:23:31;-3275.70;72.50
4107;DHT22;21906;50.812;7.132;2022-12-17T08:26:15;-3275.70;72.00
4107;DHT22;21906;50.812;7.132;2022-12-17T08:28:59;-3275.80;72.00
4107;DHT22;21906;50.812;7.132;2022-12-17T08:31:43;-3275.80;71.90
4107;DHT22;21906;50.812;7.132;2022-12-17T08:34:28;-3275.80;71.70
4107;DHT22;21906;50.812;7.132;2022-12-17T08:37:12;-3275.90;71.70
4107;DHT22;21906;50.812;7.132;2022-12-17T08:39:56;-3275.90;71.30
4107;DHT22;21906;50.812;7.132;2022-12-17T08:42:41;-3276.00;71.30
4107;DHT22;21906;50.812;7.132;2022-12-17T08:45:25;-3276.10;70.90
4107;DHT22;21906;50.812;7.132;2022-12-17T08:48:09;-3275.80;70.80
4107;DHT22;21906;50.812;7.132;2022-12-17T08:50:54;-3275.70;71.50
4107;DHT22;21906;50.812;7.132;2022-12-17T08:53:38;-3275.80;71.60
4107;DHT22;21906;50.812;7.132;2022-12-17T08:56:22;-3275.90;71.50
4107;DHT22;21906;50.812;7.132;2022-12-17T08:59:06;-3276.00;71.30
4107;DHT22;21906;50.812;7.132;2022-12-17T09:01:50;-3276.00;71.00
4107;DHT22;21906;50.812;7.132;2022-12-17T09:04:34;-3276.10;70.50
4107;DHT22;21906;50.812;7.132;2022-12-17T09:07:18;-3276.00;70.60
4107;DHT22;21906;50.812;7.132;2022-12-17T09:10:03;-3275.80;70.80
4107;DHT22;21906;50.812;7.132;2022-12-17T09:12:47;-3276.00;70.90
4107;DHT22;21906;50.812;7.132;2022-12-17T09:15:31;-3276.10;70.60
4107;DHT22;21906;50.812;7.132;2022-12-17T09:18:20;-3276.20;70.40
4107;DHT22;21906;50.812;7.132;2022-12-17T09:21:05;-3276.20;70.00
4107;DHT22;21906;50.812;7.132;2022-12-17T09:23:50;-3276.00;70.80
4107;DHT22;21906;50.812;7.132;2022-12-17T09:26:35;-3276.00;70.50
4107;DHT22;21906;50.812;7.132;2022-12-17T09:29:19;-3276.00;69.90
4107;DHT22;21906;50.812;7.132;2022-12-17T09:32:03;-3276.00;70.00
4107;DHT22;21906;50.812;7.132;2022-12-17T09:34:47;-3276.10;69.90
4107;DHT22;21906;50.812;7.132;2022-12-17T09:37:32;-3276.10;69.90
4107;DHT22;21906;50.812;7.132;2022-12-17T09:40:33;-3276.20;69.50
4107;DHT22;21906;50.812;7.132;2022-12-17T09:46:28;-3276.30;69.00
4107;DHT22;21906;50.812;7.132;2022-12-17T09:49:24;-3276.00;69.00
4107;DHT22;21906;50.812;7.132;2022-12-17T09:52:28;-3275.80;69.70
4107;DHT22;21906;50.812;7.132;2022-12-17T09:55:24;-3275.70;70.60
4107;DHT22;21906;50.812;7.132;2022-12-17T09:58:19;-3275.80;70.50
4107;DHT22;21906;50.812;7.132;2022-12-17T10:01:05;-3276.10;69.90
4107;DHT22;21906;50.812;7.132;2022-12-17T10:03:49;-3276.20;68.80
4107;DHT22;21906;50.812;7.132;2022-12-17T10:06:34;-3276.00;69.30
4107;DHT22;21906;50.812;7.132;2022-12-17T10:09:19;-3276.20;68.90
4107;DHT22;21906;50.812;7.132;2022-12-17T10:12:14;-3276.20;69.20
4107;DHT22;21906;50.812;7.132;2022-12-17T10:14:59;-3276.30;68.90
4107;DHT22;21906;50.812;7.132;2022-12-17T10:17:44;-3276.40;68.70
4107;DHT22;21906;50.812;7.132;2022-12-17T10:20:41;-3276.60;68.20
4107;DHT22;21906;50.812;7.132;2022-12-17T10:23:29;0.00;67.40
4107;DHT22;21906;50.812;7.132;2022-12-17T10:26:19;0.00;67.30
4107;DHT22;21906;50.812;7.132;2022-12-17T10:29:36;0.00;66.90
4107;DHT22;21906;50.812;7.132;2022-12-17T10:32:24;0.10;66.40
4107;DHT22;21906;50.812;7.132;2022-12-17T10:38:22;0.00;66.40
4107;DHT22;21906;50.812;7.132;2022-12-17T10:44:19;0.10;66.70
4107;DHT22;21906;50.812;7.132;2022-12-17T10:47:03;0.00;66.70
4107;DHT22;21906;50.812;7.132;2022-12-17T10:49:56;0.20;66.50
4107;DHT22;21906;50.812;7.132;2022-12-17T10:52:43;0.40;66.80
4107;DHT22;21906;50.812;7.132;2022-12-17T10:55:29;0.60;67.90
4107;DHT22;21906;50.812;7.132;2022-12-17T10:58:25;0.90;67.10
4107;DHT22;21906;50.812;7.132;2022-12-17T11:01:21;0.90;66.80
4107;DHT22;21906;50.812;7.132;2022-12-17T11:04:22;1.10;66.30
4107;DHT22;21906;50.812;7.132;2022-12-17T11:07:09;1.20;65.30
4107;DHT22;21906;50.812;7.132;2022-12-17T11:09:56;1.50;64.10
4107;DHT22;21906;50.812;7.132;2022-12-17T11:12:51;1.70;62.80
4107;DHT22;21906;50.812;7.132;2022-12-17T11:15:41;1.70;61.70
4107;DHT22;21906;50.812;7.132;2022-12-17T11:21:27;1.50;61.80
4107;DHT22;21906;50.812;7.132;2022-12-17T11:24:17;1.20;63.30
4107;DHT22;21906;50.812;7.132;2022-12-17T11:27:06;1.20;62.10
4107;DHT22;21906;50.812;7.132;2022-12-17T11:29:51;1.50;62.30
4107;DHT22;21906;50.812;7.132;2022-12-17T11:32:49;1.00;62.70
4107;DHT22;21906;50.812;7.132;2022-12-17T11:36:04;1.30;63.00
4107;DHT22;21906;50.812;7.132;2022-12-17T11:39:07;1.60;62.80
4107;DHT22;21906;50.812;7.132;2022-12-17T11:42:07;1.90;61.70
4107;DHT22;21906;50.812;7.132;2022-12-17T11:45:06;2.00;60.90
4107;DHT22;21906;50.812;7.132;2022-12-17T11:48:06;2.00;60.90
4107;DHT22;21906;50.812;7.132;2022-12-17T11:51:08;2.10;60.20
4107;DHT22;21906;50.812;7.132;2022-12-17T11:54:14;2.20;61.20
4107;DHT22;21906;50.812;7.132;2022-12-17T11:57:20;2.50;61.60
4107;DHT22;21906;50.812;7.132;2022-12-17T12:00:20;2.80;59.80
4107;DHT22;21906;50.812;7.132;2022-12-17T12:06:21;2.80;58.60
4107;DHT22;21906;50.812;7.132;2022-12-17T12:12:33;2.60;58.90
4107;DHT22;21906;50.812;7.132;2022-12-17T12:15:35;2.90;58.90
4107;DHT22;21906;50.812;7.132;2022-12-17T12:25:01;2.50;59.90
4107;DHT22;21906;50.812;7.132;2022-12-17T12:36:34;3.50;56.30
4107;DHT22;21906;50.812;7.132;2022-12-17T12:39:31;3.60;56.80
4107;DHT22;21906;50.812;7.132;2022-12-17T12:42:21;3.70;56.20
4107;DHT22;21906;50.812;7.132;2022-12-17T12:45:30;3.90;55.60
4107;DHT22;21906;50.812;7.132;2022-12-17T12:58:00;4.50;54.70
4107;DHT22;21906;50.812;7.132;2022-12-17T13:06:55;4.90;53.70
4107;DHT22;21906;50.812;7.132;2022-12-17T13:12:15;4.60;52.60
4107;DHT22;21906;50.812;7.132;2022-12-17T13:15:09;4.30;54.00
4107;DHT22;21906;50.812;7.132;2022-12-17T13:20:37;4.40;54.10
4107;DHT22;21906;50.812;7.132;2022-12-17T13:23:15;4.20;54.00
4107;DHT22;21906;50.812;7.132;2022-12-17T13:25:41;4.00;54.30
4107;DHT22;21906;50.812;7.132;2022-12-17T13:28:28;3.60;55.20
4107;DHT22;21906;50.812;7.132;2022-12-17T13:31:11;3.50;56.10
4107;DHT22;21906;50.812;7.132;2022-12-17T13:42:31;2.50;58.70
4107;DHT22;21906;50.812;7.132;2022-12-17T13:44:57;2.50;58.90
4107;DHT22;21906;50.812;7.132;2022-12-17T13:47:32;1.90;59.50
4107;DHT22;21906;50.812;7.132;2022-12-17T13:50:00;1.90;60.60
4107;DHT22;21906;50.812;7.132;2022-12-17T13:52:27;1.50;61.50
4107;DHT22;21906;50.812;7.132;2022-12-17T13:55:04;1.40;61.80
4107;DHT22;21906;50.812;7.132;2022-12-17T13:57:30;1.00;62.90
4107;DHT22;21906;50.812;7.132;2022-12-17T13:59:59;1.10;63.00
4107;DHT22;21906;50.812;7.132;2022-12-17T14:02:32;1.10;63.40
4107;DHT22;21906;50.812;7.132;2022-12-17T14:05:00;1.20;63.10
4107;DHT22;21906;50.812;7.132;2022-12-17T14:07:28;1.30;63.00
4107;DHT22;21906;50.812;7.132;2022-12-17T14:09:55;1.30;63.10
4107;DHT22;21906;50.812;7.132;2022-12-17T14:12:25;1.30;63.00
4107;DHT22;21906;50.812;7.132;2022-12-17T14:15:05;1.40;63.00
4107;DHT22;21906;50.812;7.132;2022-12-17T14:17:38;1.40;62.80
4107;DHT22;21906;50.812;7.132;2022-12-17T14:20:20;1.40;62.80
4107;DHT22;21906;50.812;7.132;2022-12-17T14:22:48;1.40;62.40
4107;DHT22;21906;50.812;7.132;2022-12-17T14:25:17;1.00;63.20
4107;DHT22;21906;50.812;7.132;2022-12-17T14:28:17;0.90;64.00
4107;DHT22;21906;50.812;7.132;2022-12-17T14:30:44;1.00;63.70
4107;DHT22;21906;50.812;7.132;2022-12-17T14:36:02;0.80;64.20
4107;DHT22;21906;50.812;7.132;2022-12-17T14:38:28;0.90;64.20
4107;DHT22;21906;50.812;7.132;2022-12-17T14:41:04;0.80;64.20
4107;DHT22;21906;50.812;7.132;2022-12-17T14:43:58;0.80;64.40
4107;DHT22;21906;50.812;7.132;2022-12-17T14:46:26;0.90;64.20
4107;DHT22;21906;50.812;7.132;2022-12-17T14:48:57;0.80;64.30
4107;DHT22;21906;50.812;7.132;2022-12-17T14:51:35;0.70;64.50
4107;DHT22;21906;50.812;7.132;2022-12-17T14:56:43;0.70;64.50
4107;DHT22;21906;50.812;7.132;2022-12-17T15:02:03;0.80;64.60
4107;DHT22;21906;50.812;7.132;2022-12-17T15:04:30;0.90;64.20
4107;DHT22;21906;50.812;7.132;2022-12-17T15:06:57;0.90;63.90
4107;DHT22;21906;50.812;7.132;2022-12-17T15:09:23;0.90;63.90
4107;DHT22;21906;50.812;7.132;2022-12-17T15:11:49;0.80;63.60
4107;DHT22;21906;50.812;7.132;2022-12-17T15:14:16;0.80;63.50
4107;DHT22;21906;50.812;7.132;2022-12-17T15:16:42;0.80;63.80
4107;DHT22;21906;50.812;7.132;2022-12-17T15:19:08;0.80;63.40
4107;DHT22;21906;50.812;7.132;2022-12-17T15:21:33;0.80;63.40
4107;DHT22;21906;50.812;7.132;2022-12-17T15:23:59;0.70;63.20
4107;DHT22;21906;50.812;7.132;2022-12-17T15:26:25;0.60;63.50
4107;DHT22;21906;50.812;7.132;2022-12-17T15:28:51;0.60;63.30
4107;DHT22;21906;50.812;7.132;2022-12-17T15:31:17;0.50;63.30
4107;DHT22;21906;50.812;7.132;2022-12-17T15:33:42;0.50;63.40
4107;DHT22;21906;50.812;7.132;2022-12-17T15:36:10;0.50;63.30
4107;DHT22;21906;50.812;7.132;2022-12-17T15:38:35;0.50;63.30
4107;DHT22;21906;50.812;7.132;2022-12-17T15:41:04;0.30;63.50
4107;DHT22;21906;50.812;7.132;2022-12-17T15:43:50;0.40;63.70
4107;DHT22;21906;50.812;7.132;2022-12-17T15:46:15;0.20;63.80
4107;DHT22;21906;50.812;7.132;2022-12-17T15:48:41;0.20;63.70
4107;DHT22;21906;50.812;7.132;2022-12-17T15:51:07;0.10;63.90
4107;DHT22;21906;50.812;7.132;2022-12-17T15:53:33;0.00;64.60
4107;DHT22;21906;50.812;7.132;2022-12-17T15:56:02;0.00;64.50
4107;DHT22;21906;50.812;7.132;2022-12-17T15:58:29;0.00;64.30
4107;DHT22;21906;50.812;7.132;2022-12-17T16:00:55;0.00;64.50
4107;DHT22;21906;50.812;7.132;2022-12-17T16:03:21;0.00;64.50
4107;DHT22;21906;50.812;7.132;2022-12-17T16:05:46;0.00;64.40
4107;DHT22;21906;50.812;7.132;2022-12-17T16:08:12;0.00;64.70
4107;DHT22;21906;50.812;7.132;2022-12-17T16:10:38;0.00;64.70
4107;DHT22;21906;50.812;7.132;2022-12-17T16:13:04;-3276.70;65.00
4107;DHT22;21906;50.812;7.132;2022-12-17T16:15:30;-3276.70;65.20
4107;DHT22;21906;50.812;7.132;2022-12-17T16:17:56;-3276.60;65.50
4107;DHT22;21906;50.812;7.132;2022-12-17T16:20:22;-3276.70;65.60
4107;DHT22;21906;50.812;7.132;2022-12-17T16:22:48;-3276.70;65.30
4107;DHT22;21906;50.812;7.132;2022-12-17T16:25:14;-3276.70;65.30
4107;DHT22;21906;50.812;7.132;2022-12-17T16:27:40;-3276.60;65.80
4107;DHT22;21906;50.812;7.132;2022-12-17T16:30:07;-3276.50;66.20
4107;DHT22;21906;50.812;7.132;2022-12-17T16:32:32;-3276.60;66.10
4107;DHT22;21906;50.812;7.132;2022-12-17T16:34:58;-3276.60;66.00
4107;DHT22;21906;50.812;7.132;2022-12-17T16:37:24;-3276.60;66.20
4107;DHT22;21906;50.812;7.132;2022-12-17T16:39:50;-3276.60;66.20
4107;DHT22;21906;50.812;7.132;2022-12-17T16:42:15;-3276.60;66.00
4107;DHT22;21906;50.812;7.132;2022-12-17T16:44:41;-3276.60;66.00
4107;DHT22;21906;50.812;7.132;2022-12-17T16:47:07;-3276.60;66.20
4107;DHT22;21906;50.812;7.132;2022-12-17T16:49:34;-3276.50;66.10
4107;DHT22;21906;50.812;7.132;2022-12-17T16:52:00;-3276.50;66.20
4107;DHT22;21906;50.812;7.132;2022-12-17T16:54:29;-3276.40;66.10
4107;DHT22;21906;50.812;7.132;2022-12-17T16:56:55;-3276.40;66.10
4107;DHT22;21906;50.812;7.132;2022-12-17T16:59:21;-3276.30;66.10
4107;DHT22;21906;50.812;7.132;2022-12-17T17:01:49;-3276.30;66.50
4107;DHT22;21906;50.812;7.132;2022-12-17T17:04:16;-3276.30;66.70
4107;DHT22;21906;50.812;7.132;2022-12-17T17:06:45;-3276.30;66.60
4107;DHT22;21906;50.812;7.132;2022-12-17T17:09:11;-3276.30;66.60
4107;DHT22;21906;50.812;7.132;2022-12-17T17:11:38;-3276.30;66.60
4107;DHT22;21906;50.812;7.132;2022-12-17T17:14:04;-3276.30;66.40
4107;DHT22;21906;50.812;7.132;2022-12-17T17:16:31;-3276.20;66.50
4107;DHT22;21906;50.812;7.132;2022-12-17T17:18:58;-3276.20;66.70
4107;DHT22;21906;50.812;7.132;2022-12-17T17:21:28;-3276.20;66.90
4107;DHT22;21906;50.812;7.132;2022-12-17T17:24:11;-3276.20;67.00
4107;DHT22;21906;50.812;7.132;2022-12-17T17:26:38;-3276.10;67.10
4107;DHT22;21906;50.812;7.132;2022-12-17T17:29:04;-3276.10;67.30
4107;DHT22;21906;50.812;7.132;2022-12-17T17:31:30;-3276.10;67.40
4107;DHT22;21906;50.812;7.132;2022-12-17T17:33:56;-3276.10;67.50
4107;DHT22;21906;50.812;7.132;2022-12-17T17:36:24;-3276.10;67.50
4107;DHT22;21906;50.812;7.132;2022-12-17T17:38:51;-3276.10;67.40
4107;DHT22;21906;50.812;7.132;2022-12-17T17:41:22;-3276.10;67.30
4107;DHT22;21906;50.812;7.132;2022-12-17T17:43:55;-3276.10;67.20
4107;DHT22;21906;50.812;7.132;2022-12-17T17:46:22;-3276.10;67.20
4107;DHT22;21906;50.812;7.132;2022-12-17T17:48:48;-3276.10;67.20
4107;DHT22;21906;50.812;7.132;2022-12-17T17:51:23;-3276.10;66.90
4107;DHT22;21906;50.812;7.132;2022-12-17T17:53:51;-3276.00;67.20
4107;DHT22;21906;50.812;7.132;2022-12-17T17:56:20;-3275.90;67.60
4107;DHT22;21906;50.812;7.132;2022-12-17T17:58:50;-3275.90;67.70
4107;DHT22;21906;50.812;7.132;2022-12-17T18:01:18;-3275.90;67.80
4107;DHT22;21906;50.812;7.132;2022-12-17T18:03:45;-3275.90;67.70
4107;DHT22;21906;50.812;7.132;2022-12-17T18:06:11;-3275.90;67.60
4107;DHT22;21906;50.812;7.132;2022-12-17T18:08:39;-3275.80;67.60
4107;DHT22;21906;50.812;7.132;2022-12-17T18:11:07;-3275.90;67.80
4107;DHT22;21906;50.812;7.132;2022-12-17T18:13:33;-3275.90;67.50
4107;DHT22;21906;50.812;7.132;2022-12-17T18:16:18;-3275.90;67.40
4107;DHT22;21906;50.812;7.132;2022-12-17T18:18:44;-3275.90;67.40
4107;DHT22;21906;50.812;7.132;2022-12-17T18:21:15;-3275.90;67.40